DTTF/GAF METAR and TAF weather

Enter ICAO airport designator
Station Type Date Time Source
DTTF METAR 2021/08/01 16:00 UTC NOAA

DTTF 011600Z 25010KT 210V280 8000 FEW030 44/02 Q1011


Station Type Date Time Source
DTTF Decoded METAR 2021/08/01 16:00 UTC NOAA

Gafsa, Tunisia (DTTF) 34-25N 008-49E 314M
Aug 01, 2021 - 12:00 PM EDT / 2021.08.01 1600 UTC
Wind: from the WSW (250 degrees) at 12 MPH (10 KT) (direction variable):0
Visibility: 4 mile(s):0
Sky conditions: mostly clear
Temperature: 111 F (44 C)
Dew Point: 35 F (2 C)
Relative Humidity: 7%
Pressure (altimeter): 29.85 in. Hg (1011 hPa)
ob: DTTF 011600Z 25010KT 210V280 8000 FEW030 44/02 Q1011
cycle: 16

Station Type Date Time Source
DTTF TAF 2021/06/30 10:54 UTC NOAA

TAF DTTF 300900Z 3010/3022 VRB02KT 8000 NSC
BECMG 3010/3012 23015KT

Example: see airport list